Pagina principale
METAR-TAF:

METAR-TAF

Aeroporti :

Sugh el Giumaa

Tripoli, Libia

latitudine: 32-54N, longitudine: 13-17E, altezza: 11 m

Osservazione

Il bollettino è stato emesso 37 minuti fa, alle 02:50 UTC
Vento 2 kt da est/sud-est
Temperature 18°C
Umidità 73%
Pressione 1017 hPa
Visibilità: 6000 m

METAR: HLLM 270250Z 11002KT 6000 NSC 18/13 Q1017

Ora: 05:27 (03:27 UTC)

Previsione

Il bollettino è stato emesso 4 ore e 27 minuti fa, alle 23:00 UTC
Previsione valida dal 27 alle 00 UTC al 27 alle 24 UTC
Vento 10 kt da est con raffiche fino a 20 kt
Visibilità: 8000 m
Poco nuvoloso ad un'altezza di 2500 ft
Nubi sparse ad un'altezza di 8000 ft

TAF: HLLM 262300Z 2700/2724 09010KT 8000 NSC BECMG2710/2712 06010G20KT 8000 FEW025 SCT080 BECMG2722/2724 09010KT

Osservazioni e previsioni meteorologiche di più di 4000 aeroporti (messaggi METAR e TAF).

Le stazioni disponibili sono rappresentate dai dischi gialli e rossi sulla carta.

Puntare il mouse per vedere il nome della stazione.

Clicca sopra per visualizzare le osservazioni e previsioni meteorologiche.

Per cambiare la mappa : fare clic sui pulsanti verdi con una croce nera per ingrandire, il pulsante verde con un trattino per diminuire, o sulla freccia verde per le mappe adiacenti.


METAR-TAF: